sensor_id;sensor_type;location;lat;lon;timestamp;P1;durP1;ratioP1;P2;durP2;ratioP2
17753;SDS011;8999;48.994;9.150;2024-01-07T00:01:35;20.75;;;12.95;;
17753;SDS011;8999;48.994;9.150;2024-01-07T00:04:06;20.10;;;11.05;;
17753;SDS011;8999;48.994;9.150;2024-01-07T00:06:38;17.40;;;9.80;;
17753;SDS011;8999;48.994;9.150;2024-01-07T00:09:11;17.30;;;10.07;;
17753;SDS011;8999;48.994;9.150;2024-01-07T00:11:43;18.92;;;10.93;;
17753;SDS011;8999;48.994;9.150;2024-01-07T00:14:15;21.48;;;11.50;;
17753;SDS011;8999;48.994;9.150;2024-01-07T00:16:47;19.33;;;10.95;;
17753;SDS011;8999;48.994;9.150;2024-01-07T00:19:18;25.15;;;12.50;;
17753;SDS011;8999;48.994;9.150;2024-01-07T00:21:50;21.90;;;12.27;;
17753;SDS011;8999;48.994;9.150;2024-01-07T00:24:23;18.65;;;11.15;;
17753;SDS011;8999;48.994;9.150;2024-01-07T00:26:58;21.48;;;11.20;;
17753;SDS011;8999;48.994;9.150;2024-01-07T00:29:30;23.35;;;13.35;;
17753;SDS011;8999;48.994;9.150;2024-01-07T00:32:01;29.77;;;15.05;;
17753;SDS011;8999;48.994;9.150;2024-01-07T00:34:33;28.08;;;14.75;;
17753;SDS011;8999;48.994;9.150;2024-01-07T00:37:05;24.30;;;13.05;;
17753;SDS011;8999;48.994;9.150;2024-01-07T00:39:38;24.02;;;12.38;;
17753;SDS011;8999;48.994;9.150;2024-01-07T00:42:12;22.05;;;12.13;;
17753;SDS011;8999;48.994;9.150;2024-01-07T00:44:43;25.83;;;12.40;;
17753;SDS011;8999;48.994;9.150;2024-01-07T00:47:15;24.67;;;12.88;;
17753;SDS011;8999;48.994;9.150;2024-01-07T00:49:47;21.83;;;12.15;;
17753;SDS011;8999;48.994;9.150;2024-01-07T00:52:18;23.70;;;12.63;;
17753;SDS011;8999;48.994;9.150;2024-01-07T00:54:52;23.15;;;13.02;;
17753;SDS011;8999;48.994;9.150;2024-01-07T00:57:24;24.73;;;12.95;;
17753;SDS011;8999;48.994;9.150;2024-01-07T00:59:55;24.38;;;13.07;;
17753;SDS011;8999;48.994;9.150;2024-01-07T01:02:27;23.98;;;13.00;;
17753;SDS011;8999;48.994;9.150;2024-01-07T01:04:59;25.38;;;13.15;;
17753;SDS011;8999;48.994;9.150;2024-01-07T01:07:30;22.15;;;13.23;;
17753;SDS011;8999;48.994;9.150;2024-01-07T01:10:04;20.20;;;12.60;;
17753;SDS011;8999;48.994;9.150;2024-01-07T01:12:36;23.42;;;13.15;;
17753;SDS011;8999;48.994;9.150;2024-01-07T01:15:08;21.42;;;11.85;;
17753;SDS011;8999;48.994;9.150;2024-01-07T01:17:40;22.40;;;12.85;;
17753;SDS011;8999;48.994;9.150;2024-01-07T01:20:12;23.05;;;12.98;;
17753;SDS011;8999;48.994;9.150;2024-01-07T01:22:43;23.92;;;12.52;;
17753;SDS011;8999;48.994;9.150;2024-01-07T01:25:16;20.80;;;11.80;;
17753;SDS011;8999;48.994;9.150;2024-01-07T01:27:48;22.35;;;11.88;;
17753;SDS011;8999;48.994;9.150;2024-01-07T01:30:20;22.95;;;12.50;;
17753;SDS011;8999;48.994;9.150;2024-01-07T01:32:51;18.00;;;11.10;;
17753;SDS011;8999;48.994;9.150;2024-01-07T01:35:24;22.25;;;11.82;;
17753;SDS011;8999;48.994;9.150;2024-01-07T01:37:56;19.33;;;11.55;;
17753;SDS011;8999;48.994;9.150;2024-01-07T01:40:28;20.27;;;11.20;;
17753;SDS011;8999;48.994;9.150;2024-01-07T01:43:01;22.45;;;11.45;;
17753;SDS011;8999;48.994;9.150;2024-01-07T01:45:33;20.70;;;11.52;;
17753;SDS011;8999;48.994;9.150;2024-01-07T01:48:04;17.25;;;10.55;;
17753;SDS011;8999;48.994;9.150;2024-01-07T01:50:37;17.05;;;10.23;;
17753;SDS011;8999;48.994;9.150;2024-01-07T01:53:09;18.60;;;10.15;;
17753;SDS011;8999;48.994;9.150;2024-01-07T01:55:42;19.60;;;10.60;;
17753;SDS011;8999;48.994;9.150;2024-01-07T01:58:13;16.15;;;9.55;;
17753;SDS011;8999;48.994;9.150;2024-01-07T02:00:45;16.00;;;9.85;;
17753;SDS011;8999;48.994;9.150;2024-01-07T02:03:17;16.63;;;9.63;;
17753;SDS011;8999;48.994;9.150;2024-01-07T02:05:49;19.20;;;10.40;;
17753;SDS011;8999;48.994;9.150;2024-01-07T02:08:20;16.73;;;9.68;;
17753;SDS011;8999;48.994;9.150;2024-01-07T02:10:54;19.02;;;10.20;;
17753;SDS011;8999;48.994;9.150;2024-01-07T02:13:25;17.20;;;9.90;;
17753;SDS011;8999;48.994;9.150;2024-01-07T02:15:57;17.13;;;10.25;;
17753;SDS011;8999;48.994;9.150;2024-01-07T02:18:28;18.80;;;9.95;;
17753;SDS011;8999;48.994;9.150;2024-01-07T02:21:00;15.35;;;9.43;;
17753;SDS011;8999;48.994;9.150;2024-01-07T02:23:32;16.77;;;9.88;;
17753;SDS011;8999;48.994;9.150;2024-01-07T02:26:05;18.08;;;9.90;;
17753;SDS011;8999;48.994;9.150;2024-01-07T02:28:36;18.30;;;10.20;;
17753;SDS011;8999;48.994;9.150;2024-01-07T02:31:08;20.23;;;10.77;;
17753;SDS011;8999;48.994;9.150;2024-01-07T02:33:40;18.13;;;10.40;;
17753;SDS011;8999;48.994;9.150;2024-01-07T02:36:11;17.33;;;10.00;;
17753;SDS011;8999;48.994;9.150;2024-01-07T02:38:43;16.98;;;9.63;;
17753;SDS011;8999;48.994;9.150;2024-01-07T02:41:16;17.92;;;10.38;;
17753;SDS011;8999;48.994;9.150;2024-01-07T02:43:48;16.52;;;9.15;;
17753;SDS011;8999;48.994;9.150;2024-01-07T02:46:20;20.08;;;10.30;;
17753;SDS011;8999;48.994;9.150;2024-01-07T02:48:51;21.45;;;10.80;;
17753;SDS011;8999;48.994;9.150;2024-01-07T02:51:23;15.60;;;8.90;;
17753;SDS011;8999;48.994;9.150;2024-01-07T02:53:55;18.67;;;9.70;;
17753;SDS011;8999;48.994;9.150;2024-01-07T02:56:28;19.05;;;8.98;;
17753;SDS011;8999;48.994;9.150;2024-01-07T02:58:59;16.42;;;8.50;;
17753;SDS011;8999;48.994;9.150;2024-01-07T03:01:31;17.90;;;9.77;;
17753;SDS011;8999;48.994;9.150;2024-01-07T03:04:10;19.65;;;10.55;;
17753;SDS011;8999;48.994;9.150;2024-01-07T03:06:43;20.77;;;10.20;;
17753;SDS011;8999;48.994;9.150;2024-01-07T03:09:15;21.02;;;11.07;;
17753;SDS011;8999;48.994;9.150;2024-01-07T03:11:47;20.55;;;10.65;;
17753;SDS011;8999;48.994;9.150;2024-01-07T03:14:19;19.17;;;10.85;;
17753;SDS011;8999;48.994;9.150;2024-01-07T03:16:52;18.67;;;10.05;;
17753;SDS011;8999;48.994;9.150;2024-01-07T03:19:23;19.52;;;11.25;;
17753;SDS011;8999;48.994;9.150;2024-01-07T03:21:55;20.75;;;10.38;;
17753;SDS011;8999;48.994;9.150;2024-01-07T03:24:26;19.10;;;10.57;;
17753;SDS011;8999;48.994;9.150;2024-01-07T03:26:59;20.60;;;10.80;;
17753;SDS011;8999;48.994;9.150;2024-01-07T03:29:31;16.88;;;9.50;;
17753;SDS011;8999;48.994;9.150;2024-01-07T03:32:03;19.90;;;10.23;;
17753;SDS011;8999;48.994;9.150;2024-01-07T03:34:35;20.13;;;10.27;;
17753;SDS011;8999;48.994;9.150;2024-01-07T03:37:06;18.15;;;10.15;;
17753;SDS011;8999;48.994;9.150;2024-01-07T03:39:38;17.95;;;9.95;;
17753;SDS011;8999;48.994;9.150;2024-01-07T03:42:11;17.85;;;9.88;;
17753;SDS011;8999;48.994;9.150;2024-01-07T03:44:43;18.42;;;9.57;;
17753;SDS011;8999;48.994;9.150;2024-01-07T03:47:15;18.65;;;9.55;;
17753;SDS011;8999;48.994;9.150;2024-01-07T03:49:46;15.38;;;8.88;;
17753;SDS011;8999;48.994;9.150;2024-01-07T03:52:21;19.52;;;10.40;;
17753;SDS011;8999;48.994;9.150;2024-01-07T03:54:52;17.98;;;9.48;;
17753;SDS011;8999;48.994;9.150;2024-01-07T03:57:25;18.00;;;8.73;;
17753;SDS011;8999;48.994;9.150;2024-01-07T03:59:57;19.50;;;9.80;;
17753;SDS011;8999;48.994;9.150;2024-01-07T04:02:28;18.40;;;9.55;;
17753;SDS011;8999;48.994;9.150;2024-01-07T04:05:00;16.90;;;9.30;;
17753;SDS011;8999;48.994;9.150;2024-01-07T04:07:32;18.48;;;9.35;;
17753;SDS011;8999;48.994;9.150;2024-01-07T04:10:03;18.35;;;8.95;;
17753;SDS011;8999;48.994;9.150;2024-01-07T04:12:38;14.82;;;8.18;;
17753;SDS011;8999;48.994;9.150;2024-01-07T04:15:10;15.65;;;8.45;;
17753;SDS011;8999;48.994;9.150;2024-01-07T04:17:42;15.48;;;8.35;;
17753;SDS011;8999;48.994;9.150;2024-01-07T04:20:14;15.73;;;8.48;;
17753;SDS011;8999;48.994;9.150;2024-01-07T04:22:46;15.40;;;8.32;;
17753;SDS011;8999;48.994;9.150;2024-01-07T04:25:17;18.13;;;8.85;;
17753;SDS011;8999;48.994;9.150;2024-01-07T04:27:50;15.95;;;8.85;;
17753;SDS011;8999;48.994;9.150;2024-01-07T04:30:22;17.10;;;9.85;;
17753;SDS011;8999;48.994;9.150;2024-01-07T04:32:54;16.65;;;8.57;;
17753;SDS011;8999;48.994;9.150;2024-01-07T04:35:25;14.48;;;7.80;;
17753;SDS011;8999;48.994;9.150;2024-01-07T04:37:57;17.85;;;9.93;;
17753;SDS011;8999;48.994;9.150;2024-01-07T04:40:28;18.85;;;9.70;;
17753;SDS011;8999;48.994;9.150;2024-01-07T04:43:01;14.10;;;7.97;;
17753;SDS011;8999;48.994;9.150;2024-01-07T04:45:33;14.63;;;8.65;;
17753;SDS011;8999;48.994;9.150;2024-01-07T04:48:05;14.93;;;8.15;;
17753;SDS011;8999;48.994;9.150;2024-01-07T04:50:37;13.43;;;7.93;;
17753;SDS011;8999;48.994;9.150;2024-01-07T04:53:10;15.90;;;8.07;;
17753;SDS011;8999;48.994;9.150;2024-01-07T04:55:41;11.68;;;6.70;;
17753;SDS011;8999;48.994;9.150;2024-01-07T04:58:14;13.38;;;6.97;;
17753;SDS011;8999;48.994;9.150;2024-01-07T05:00:46;14.52;;;6.85;;
17753;SDS011;8999;48.994;9.150;2024-01-07T05:03:18;13.40;;;7.30;;
17753;SDS011;8999;48.994;9.150;2024-01-07T05:05:49;16.58;;;8.23;;
17753;SDS011;8999;48.994;9.150;2024-01-07T05:08:21;15.77;;;8.50;;
17753;SDS011;8999;48.994;9.150;2024-01-07T05:10:52;15.32;;;7.93;;
17753;SDS011;8999;48.994;9.150;2024-01-07T05:13:25;14.60;;;7.63;;
17753;SDS011;8999;48.994;9.150;2024-01-07T05:15:57;13.77;;;7.65;;
17753;SDS011;8999;48.994;9.150;2024-01-07T05:18:29;15.48;;;6.88;;
17753;SDS011;8999;48.994;9.150;2024-01-07T05:21:00;14.23;;;7.05;;
17753;SDS011;8999;48.994;9.150;2024-01-07T05:23:32;12.88;;;7.47;;
17753;SDS011;8999;48.994;9.150;2024-01-07T05:26:04;13.95;;;7.43;;
17753;SDS011;8999;48.994;9.150;2024-01-07T05:28:37;13.00;;;7.10;;
17753;SDS011;8999;48.994;9.150;2024-01-07T05:31:14;13.93;;;7.60;;
17753;SDS011;8999;48.994;9.150;2024-01-07T05:33:46;12.88;;;7.57;;
17753;SDS011;8999;48.994;9.150;2024-01-07T05:36:17;15.65;;;7.53;;
17753;SDS011;8999;48.994;9.150;2024-01-07T05:38:49;15.35;;;8.05;;
17753;SDS011;8999;48.994;9.150;2024-01-07T05:41:21;12.02;;;7.10;;
17753;SDS011;8999;48.994;9.150;2024-01-07T05:43:54;13.60;;;7.20;;
17753;SDS011;8999;48.994;9.150;2024-01-07T05:46:25;13.48;;;7.97;;
17753;SDS011;8999;48.994;9.150;2024-01-07T05:48:57;11.55;;;7.18;;
17753;SDS011;8999;48.994;9.150;2024-01-07T05:51:29;14.20;;;7.70;;
17753;SDS011;8999;48.994;9.150;2024-01-07T05:54:00;11.65;;;6.80;;
17753;SDS011;8999;48.994;9.150;2024-01-07T05:56:32;10.48;;;6.57;;
17753;SDS011;8999;48.994;9.150;2024-01-07T05:59:11;13.68;;;7.32;;
17753;SDS011;8999;48.994;9.150;2024-01-07T06:01:42;12.38;;;7.57;;
17753;SDS011;8999;48.994;9.150;2024-01-07T06:04:14;13.23;;;8.05;;
17753;SDS011;8999;48.994;9.150;2024-01-07T06:06:46;12.25;;;7.13;;
17753;SDS011;8999;48.994;9.150;2024-01-07T06:09:17;14.38;;;8.07;;
17753;SDS011;8999;48.994;9.150;2024-01-07T06:11:49;13.15;;;7.68;;
17753;SDS011;8999;48.994;9.150;2024-01-07T06:14:22;12.05;;;7.45;;
17753;SDS011;8999;48.994;9.150;2024-01-07T06:16:54;12.95;;;7.78;;
17753;SDS011;8999;48.994;9.150;2024-01-07T06:19:26;16.85;;;8.15;;
17753;SDS011;8999;48.994;9.150;2024-01-07T06:21:58;11.63;;;6.70;;
17753;SDS011;8999;48.994;9.150;2024-01-07T06:24:29;12.10;;;6.97;;
17753;SDS011;8999;48.994;9.150;2024-01-07T06:27:01;12.93;;;7.00;;
17753;SDS011;8999;48.994;9.150;2024-01-07T06:29:35;12.02;;;6.57;;
17753;SDS011;8999;48.994;9.150;2024-01-07T06:32:07;11.50;;;7.15;;
17753;SDS011;8999;48.994;9.150;2024-01-07T06:34:39;12.05;;;7.68;;
17753;SDS011;8999;48.994;9.150;2024-01-07T06:37:11;10.68;;;6.55;;
17753;SDS011;8999;48.994;9.150;2024-01-07T06:39:43;12.93;;;7.40;;
17753;SDS011;8999;48.994;9.150;2024-01-07T06:42:14;15.07;;;8.32;;
17753;SDS011;8999;48.994;9.150;2024-01-07T06:44:47;12.82;;;7.15;;
17753;SDS011;8999;48.994;9.150;2024-01-07T06:47:19;27.52;;;14.13;;
17753;SDS011;8999;48.994;9.150;2024-01-07T06:49:51;12.15;;;7.60;;
17753;SDS011;8999;48.994;9.150;2024-01-07T06:52:22;12.23;;;7.85;;
17753;SDS011;8999;48.994;9.150;2024-01-07T06:54:54;12.30;;;7.80;;
17753;SDS011;8999;48.994;9.150;2024-01-07T06:57:26;11.20;;;7.35;;
17753;SDS011;8999;48.994;9.150;2024-01-07T06:59:59;12.27;;;7.38;;
17753;SDS011;8999;48.994;9.150;2024-01-07T07:02:30;14.02;;;7.40;;
17753;SDS011;8999;48.994;9.150;2024-01-07T07:05:02;13.73;;;7.00;;
17753;SDS011;8999;48.994;9.150;2024-01-07T07:07:34;12.23;;;7.32;;
17753;SDS011;8999;48.994;9.150;2024-01-07T07:10:22;12.45;;;6.85;;
17753;SDS011;8999;48.994;9.150;2024-01-07T07:15:45;11.48;;;7.28;;
17753;SDS011;8999;48.994;9.150;2024-01-07T07:19:33;10.02;;;6.03;;
17753;SDS011;8999;48.994;9.150;2024-01-07T07:30:00;8.98;;;5.63;;
17753;SDS011;8999;48.994;9.150;2024-01-07T07:35:33;8.07;;;5.30;;
17753;SDS011;8999;48.994;9.150;2024-01-07T07:41:51;10.30;;;5.35;;
17753;SDS011;8999;48.994;9.150;2024-01-07T07:57:03;8.57;;;5.47;;
17753;SDS011;8999;48.994;9.150;2024-01-07T08:00:03;7.57;;;4.77;;
17753;SDS011;8999;48.994;9.150;2024-01-07T08:03:23;8.17;;;4.73;;
17753;SDS011;8999;48.994;9.150;2024-01-07T08:06:13;8.10;;;4.47;;
17753;SDS011;8999;48.994;9.150;2024-01-07T08:09:04;10.93;;;6.03;;
17753;SDS011;8999;48.994;9.150;2024-01-07T08:11:37;8.67;;;4.77;;
17753;SDS011;8999;48.994;9.150;2024-01-07T08:14:08;7.63;;;4.65;;
17753;SDS011;8999;48.994;9.150;2024-01-07T08:16:40;7.80;;;4.77;;
17753;SDS011;8999;48.994;9.150;2024-01-07T08:19:13;6.07;;;4.20;;
17753;SDS011;8999;48.994;9.150;2024-01-07T08:21:45;8.38;;;4.50;;
17753;SDS011;8999;48.994;9.150;2024-01-07T08:24:18;8.53;;;5.03;;
17753;SDS011;8999;48.994;9.150;2024-01-07T08:26:50;8.80;;;4.80;;
17753;SDS011;8999;48.994;9.150;2024-01-07T08:29:21;10.30;;;5.78;;
17753;SDS011;8999;48.994;9.150;2024-01-07T08:31:53;8.98;;;5.95;;
17753;SDS011;8999;48.994;9.150;2024-01-07T08:34:25;9.05;;;5.55;;
17753;SDS011;8999;48.994;9.150;2024-01-07T08:36:56;9.10;;;5.40;;
17753;SDS011;8999;48.994;9.150;2024-01-07T08:39:29;9.10;;;6.20;;
17753;SDS011;8999;48.994;9.150;2024-01-07T08:42:01;8.30;;;5.47;;
17753;SDS011;8999;48.994;9.150;2024-01-07T08:44:34;10.27;;;6.40;;
17753;SDS011;8999;48.994;9.150;2024-01-07T08:47:05;8.88;;;5.53;;
17753;SDS011;8999;48.994;9.150;2024-01-07T08:49:37;10.27;;;6.33;;
17753;SDS011;8999;48.994;9.150;2024-01-07T08:52:09;10.45;;;5.80;;
17753;SDS011;8999;48.994;9.150;2024-01-07T08:54:42;11.07;;;6.47;;
17753;SDS011;8999;48.994;9.150;2024-01-07T08:57:14;10.93;;;6.83;;
17753;SDS011;8999;48.994;9.150;2024-01-07T08:59:45;16.00;;;9.00;;
17753;SDS011;8999;48.994;9.150;2024-01-07T09:02:17;11.32;;;6.65;;
17753;SDS011;8999;48.994;9.150;2024-01-07T09:04:49;10.05;;;6.20;;
17753;SDS011;8999;48.994;9.150;2024-01-07T09:07:20;10.77;;;6.00;;
17753;SDS011;8999;48.994;9.150;2024-01-07T09:09:54;10.63;;;6.50;;
17753;SDS011;8999;48.994;9.150;2024-01-07T09:12:29;11.52;;;6.28;;
17753;SDS011;8999;48.994;9.150;2024-01-07T09:15:01;10.57;;;5.88;;
17753;SDS011;8999;48.994;9.150;2024-01-07T09:17:32;8.00;;;4.88;;
17753;SDS011;8999;48.994;9.150;2024-01-07T09:20:04;8.17;;;5.40;;
17753;SDS011;8999;48.994;9.150;2024-01-07T09:22:38;8.73;;;5.33;;
17753;SDS011;8999;48.994;9.150;2024-01-07T09:25:11;9.37;;;5.37;;
17753;SDS011;8999;48.994;9.150;2024-01-07T09:27:43;10.83;;;5.20;;
17753;SDS011;8999;48.994;9.150;2024-01-07T09:30:15;10.00;;;6.10;;
17753;SDS011;8999;48.994;9.150;2024-01-07T09:32:47;9.48;;;6.07;;
17753;SDS011;8999;48.994;9.150;2024-01-07T09:35:20;8.50;;;5.87;;
17753;SDS011;8999;48.994;9.150;2024-01-07T09:37:52;8.20;;;5.50;;
17753;SDS011;8999;48.994;9.150;2024-01-07T09:40:26;9.73;;;5.90;;
17753;SDS011;8999;48.994;9.150;2024-01-07T09:43:00;10.05;;;5.78;;
17753;SDS011;8999;48.994;9.150;2024-01-07T09:45:36;9.47;;;6.27;;
17753;SDS011;8999;48.994;9.150;2024-01-07T09:48:08;8.90;;;5.83;;
17753;SDS011;8999;48.994;9.150;2024-01-07T09:50:40;11.05;;;6.53;;
17753;SDS011;8999;48.994;9.150;2024-01-07T09:53:14;10.07;;;6.30;;
17753;SDS011;8999;48.994;9.150;2024-01-07T09:55:51;8.27;;;5.30;;
17753;SDS011;8999;48.994;9.150;2024-01-07T09:58:24;8.73;;;4.83;;
17753;SDS011;8999;48.994;9.150;2024-01-07T10:00:56;6.40;;;4.67;;
17753;SDS011;8999;48.994;9.150;2024-01-07T10:03:28;10.17;;;6.10;;
17753;SDS011;8999;48.994;9.150;2024-01-07T10:06:00;7.53;;;4.30;;
17753;SDS011;8999;48.994;9.150;2024-01-07T10:08:32;8.13;;;4.50;;
17753;SDS011;8999;48.994;9.150;2024-01-07T10:11:05;6.50;;;4.63;;
17753;SDS011;8999;48.994;9.150;2024-01-07T10:13:39;6.40;;;4.13;;
17753;SDS011;8999;48.994;9.150;2024-01-07T10:16:11;7.20;;;3.87;;
17753;SDS011;8999;48.994;9.150;2024-01-07T10:18:42;5.83;;;3.93;;
17753;SDS011;8999;48.994;9.150;2024-01-07T10:21:14;5.57;;;3.80;;
17753;SDS011;8999;48.994;9.150;2024-01-07T10:23:46;5.37;;;3.80;;
17753;SDS011;8999;48.994;9.150;2024-01-07T10:26:19;6.13;;;3.97;;
17753;SDS011;8999;48.994;9.150;2024-01-07T10:28:51;5.93;;;3.87;;
17753;SDS011;8999;48.994;9.150;2024-01-07T10:31:22;6.13;;;4.37;;
17753;SDS011;8999;48.994;9.150;2024-01-07T10:33:54;8.02;;;4.70;;
17753;SDS011;8999;48.994;9.150;2024-01-07T10:36:26;5.93;;;3.83;;
17753;SDS011;8999;48.994;9.150;2024-01-07T10:38:58;6.25;;;4.18;;
17753;SDS011;8999;48.994;9.150;2024-01-07T10:41:31;5.40;;;3.90;;
17753;SDS011;8999;48.994;9.150;2024-01-07T10:44:02;5.40;;;3.80;;
17753;SDS011;8999;48.994;9.150;2024-01-07T10:46:35;5.87;;;4.40;;
17753;SDS011;8999;48.994;9.150;2024-01-07T10:49:07;5.30;;;3.70;;
17753;SDS011;8999;48.994;9.150;2024-01-07T10:51:45;5.40;;;3.80;;
17753;SDS011;8999;48.994;9.150;2024-01-07T10:54:17;10.30;;;4.17;;
17753;SDS011;8999;48.994;9.150;2024-01-07T10:56:52;7.40;;;3.97;;
17753;SDS011;8999;48.994;9.150;2024-01-07T10:59:25;6.47;;;3.97;;
17753;SDS011;8999;48.994;9.150;2024-01-07T11:01:58;6.27;;;4.10;;
17753;SDS011;8999;48.994;9.150;2024-01-07T11:04:30;7.17;;;4.60;;
17753;SDS011;8999;48.994;9.150;2024-01-07T11:07:12;5.53;;;3.70;;
17753;SDS011;8999;48.994;9.150;2024-01-07T11:09:51;5.70;;;4.10;;
17753;SDS011;8999;48.994;9.150;2024-01-07T11:12:28;8.43;;;4.67;;
17753;SDS011;8999;48.994;9.150;2024-01-07T11:15:01;6.40;;;4.00;;
17753;SDS011;8999;48.994;9.150;2024-01-07T11:17:40;7.10;;;4.10;;
17753;SDS011;8999;48.994;9.150;2024-01-07T11:20:13;6.60;;;4.73;;
17753;SDS011;8999;48.994;9.150;2024-01-07T11:22:49;8.23;;;4.53;;
17753;SDS011;8999;48.994;9.150;2024-01-07T11:25:31;8.43;;;4.83;;
17753;SDS011;8999;48.994;9.150;2024-01-07T11:28:04;7.10;;;4.40;;
17753;SDS011;8999;48.994;9.150;2024-01-07T11:30:37;8.30;;;4.03;;
17753;SDS011;8999;48.994;9.150;2024-01-07T11:33:11;6.33;;;4.43;;
17753;SDS011;8999;48.994;9.150;2024-01-07T11:38:35;6.90;;;4.43;;
17753;SDS011;8999;48.994;9.150;2024-01-07T11:41:09;7.00;;;4.50;;
17753;SDS011;8999;48.994;9.150;2024-01-07T11:43:54;7.80;;;4.70;;
17753;SDS011;8999;48.994;9.150;2024-01-07T11:46:28;7.60;;;4.60;;
17753;SDS011;8999;48.994;9.150;2024-01-07T11:49:01;6.67;;;4.80;;
17753;SDS011;8999;48.994;9.150;2024-01-07T11:51:32;7.13;;;5.07;;
17753;SDS011;8999;48.994;9.150;2024-01-07T11:54:05;5.90;;;4.27;;
17753;SDS011;8999;48.994;9.150;2024-01-07T11:56:39;8.77;;;5.03;;
17753;SDS011;8999;48.994;9.150;2024-01-07T11:59:12;7.13;;;5.00;;
17753;SDS011;8999;48.994;9.150;2024-01-07T12:01:44;8.40;;;5.33;;
17753;SDS011;8999;48.994;9.150;2024-01-07T12:04:16;7.40;;;5.40;;
17753;SDS011;8999;48.994;9.150;2024-01-07T12:06:48;7.53;;;4.63;;
17753;SDS011;8999;48.994;9.150;2024-01-07T12:09:19;8.77;;;4.90;;
17753;SDS011;8999;48.994;9.150;2024-01-07T12:11:52;9.10;;;5.10;;
17753;SDS011;8999;48.994;9.150;2024-01-07T12:14:25;7.67;;;4.80;;
17753;SDS011;8999;48.994;9.150;2024-01-07T12:16:57;8.13;;;5.27;;
17753;SDS011;8999;48.994;9.150;2024-01-07T12:19:30;7.80;;;5.20;;
17753;SDS011;8999;48.994;9.150;2024-01-07T12:22:02;8.23;;;5.53;;
17753;SDS011;8999;48.994;9.150;2024-01-07T12:24:34;8.67;;;5.27;;
17753;SDS011;8999;48.994;9.150;2024-01-07T12:27:09;7.80;;;5.23;;
17753;SDS011;8999;48.994;9.150;2024-01-07T12:29:42;8.47;;;5.60;;
17753;SDS011;8999;48.994;9.150;2024-01-07T12:32:15;8.17;;;5.47;;
17753;SDS011;8999;48.994;9.150;2024-01-07T12:34:48;9.43;;;6.17;;
17753;SDS011;8999;48.994;9.150;2024-01-07T12:37:22;10.77;;;6.63;;
17753;SDS011;8999;48.994;9.150;2024-01-07T12:39:54;8.77;;;5.57;;
17753;SDS011;8999;48.994;9.150;2024-01-07T12:42:26;9.03;;;5.97;;
17753;SDS011;8999;48.994;9.150;2024-01-07T12:45:00;9.60;;;6.20;;
17753;SDS011;8999;48.994;9.150;2024-01-07T12:47:32;9.00;;;5.97;;
17753;SDS011;8999;48.994;9.150;2024-01-07T12:50:04;9.47;;;6.10;;
17753;SDS011;8999;48.994;9.150;2024-01-07T12:52:38;8.83;;;5.80;;
17753;SDS011;8999;48.994;9.150;2024-01-07T12:55:10;8.47;;;5.80;;
17753;SDS011;8999;48.994;9.150;2024-01-07T12:57:42;9.63;;;5.53;;
17753;SDS011;8999;48.994;9.150;2024-01-07T13:00:16;10.80;;;6.60;;
17753;SDS011;8999;48.994;9.150;2024-01-07T13:02:48;9.50;;;5.93;;
17753;SDS011;8999;48.994;9.150;2024-01-07T13:05:20;10.73;;;6.50;;
17753;SDS011;8999;48.994;9.150;2024-01-07T13:07:52;9.83;;;6.43;;
17753;SDS011;8999;48.994;9.150;2024-01-07T13:10:24;11.40;;;7.40;;
17753;SDS011;8999;48.994;9.150;2024-01-07T13:12:57;10.73;;;6.30;;
17753;SDS011;8999;48.994;9.150;2024-01-07T13:15:31;10.50;;;6.37;;
17753;SDS011;8999;48.994;9.150;2024-01-07T13:18:03;11.33;;;6.73;;
17753;SDS011;8999;48.994;9.150;2024-01-07T13:20:35;8.90;;;5.07;;
17753;SDS011;8999;48.994;9.150;2024-01-07T13:23:08;11.00;;;5.70;;
17753;SDS011;8999;48.994;9.150;2024-01-07T13:25:40;9.13;;;5.50;;
17753;SDS011;8999;48.994;9.150;2024-01-07T13:28:11;11.07;;;5.87;;
17753;SDS011;8999;48.994;9.150;2024-01-07T13:30:44;10.27;;;6.03;;
17753;SDS011;8999;48.994;9.150;2024-01-07T13:33:16;10.93;;;6.83;;
17753;SDS011;8999;48.994;9.150;2024-01-07T13:35:48;8.97;;;6.20;;
17753;SDS011;8999;48.994;9.150;2024-01-07T13:38:19;10.00;;;6.10;;
17753;SDS011;8999;48.994;9.150;2024-01-07T13:40:51;10.10;;;6.77;;
17753;SDS011;8999;48.994;9.150;2024-01-07T13:43:23;11.27;;;6.93;;
17753;SDS011;8999;48.994;9.150;2024-01-07T13:45:59;11.30;;;6.47;;
17753;SDS011;8999;48.994;9.150;2024-01-07T13:48:32;11.43;;;7.00;;
17753;SDS011;8999;48.994;9.150;2024-01-07T13:51:04;10.23;;;6.47;;
17753;SDS011;8999;48.994;9.150;2024-01-07T13:53:36;10.10;;;6.73;;
17753;SDS011;8999;48.994;9.150;2024-01-07T13:56:08;12.00;;;6.73;;
17753;SDS011;8999;48.994;9.150;2024-01-07T13:58:40;10.17;;;6.60;;
17753;SDS011;8999;48.994;9.150;2024-01-07T14:01:15;11.80;;;6.93;;
17753;SDS011;8999;48.994;9.150;2024-01-07T14:03:47;10.70;;;6.90;;
17753;SDS011;8999;48.994;9.150;2024-01-07T14:06:19;10.07;;;6.40;;
17753;SDS011;8999;48.994;9.150;2024-01-07T14:08:51;11.70;;;7.17;;
17753;SDS011;8999;48.994;9.150;2024-01-07T14:11:23;11.83;;;6.93;;
17753;SDS011;8999;48.994;9.150;2024-01-07T14:15:36;11.93;;;6.87;;
17753;SDS011;8999;48.994;9.150;2024-01-07T14:17:42;11.20;;;6.33;;
17753;SDS011;8999;48.994;9.150;2024-01-07T14:20:59;9.97;;;5.97;;
17753;SDS011;8999;48.994;9.150;2024-01-07T14:26:51;10.73;;;6.30;;
17753;SDS011;8999;48.994;9.150;2024-01-07T14:30:10;12.23;;;7.30;;
17753;SDS011;8999;48.994;9.150;2024-01-07T14:39:42;10.63;;;6.67;;
17753;SDS011;8999;48.994;9.150;2024-01-07T14:42:18;10.30;;;6.73;;
17753;SDS011;8999;48.994;9.150;2024-01-07T14:48:06;10.60;;;6.43;;
17753;SDS011;8999;48.994;9.150;2024-01-07T14:51:20;11.03;;;6.63;;
17753;SDS011;8999;48.994;9.150;2024-01-07T14:54:12;11.13;;;6.30;;
17753;SDS011;8999;48.994;9.150;2024-01-07T15:03:25;10.03;;;5.53;;
17753;SDS011;8999;48.994;9.150;2024-01-07T15:13:13;8.37;;;5.47;;
17753;SDS011;8999;48.994;9.150;2024-01-07T15:15:51;10.13;;;5.60;;
17753;SDS011;8999;48.994;9.150;2024-01-07T15:19:15;9.23;;;5.37;;
17753;SDS011;8999;48.994;9.150;2024-01-07T15:28:40;9.53;;;5.60;;
17753;SDS011;8999;48.994;9.150;2024-01-07T15:33:48;9.90;;;5.00;;
17753;SDS011;8999;48.994;9.150;2024-01-07T15:34:47;7.73;;;5.00;;
17753;SDS011;8999;48.994;9.150;2024-01-07T15:38:02;6.70;;;4.57;;
17753;SDS011;8999;48.994;9.150;2024-01-07T15:45:44;9.47;;;5.47;;
17753;SDS011;8999;48.994;9.150;2024-01-07T15:47:04;8.30;;;5.03;;
17753;SDS011;8999;48.994;9.150;2024-01-07T15:49:36;7.83;;;4.73;;
17753;SDS011;8999;48.994;9.150;2024-01-07T15:52:09;9.07;;;5.60;;
17753;SDS011;8999;48.994;9.150;2024-01-07T15:54:41;7.03;;;4.80;;
17753;SDS011;8999;48.994;9.150;2024-01-07T15:57:12;8.20;;;4.97;;
17753;SDS011;8999;48.994;9.150;2024-01-07T15:59:44;8.07;;;4.97;;
17753;SDS011;8999;48.994;9.150;2024-01-07T16:02:16;7.43;;;5.00;;
17753;SDS011;8999;48.994;9.150;2024-01-07T16:04:49;8.67;;;5.07;;
17753;SDS011;8999;48.994;9.150;2024-01-07T16:07:23;8.20;;;4.87;;
17753;SDS011;8999;48.994;9.150;2024-01-07T16:09:56;7.60;;;4.67;;
17753;SDS011;8999;48.994;9.150;2024-01-07T16:12:30;7.43;;;4.57;;
17753;SDS011;8999;48.994;9.150;2024-01-07T16:15:03;8.20;;;5.30;;
17753;SDS011;8999;48.994;9.150;2024-01-07T16:17:37;8.77;;;5.10;;
17753;SDS011;8999;48.994;9.150;2024-01-07T16:20:10;9.73;;;5.50;;
17753;SDS011;8999;48.994;9.150;2024-01-07T16:22:44;7.80;;;4.50;;
17753;SDS011;8999;48.994;9.150;2024-01-07T16:25:17;9.03;;;5.20;;
17753;SDS011;8999;48.994;9.150;2024-01-07T16:27:50;10.30;;;5.23;;
17753;SDS011;8999;48.994;9.150;2024-01-07T16:30:22;8.90;;;5.60;;
17753;SDS011;8999;48.994;9.150;2024-01-07T16:32:54;10.67;;;5.63;;
17753;SDS011;8999;48.994;9.150;2024-01-07T16:35:27;8.23;;;4.43;;
17753;SDS011;8999;48.994;9.150;2024-01-07T16:38:02;8.70;;;5.40;;
17753;SDS011;8999;48.994;9.150;2024-01-07T16:40:34;7.37;;;4.13;;
17753;SDS011;8999;48.994;9.150;2024-01-07T16:43:06;8.03;;;5.13;;